Sumifukumaru No.5 — JD3058 — position and weather

sailwx.info

Track history (hours):
 
Tides and Currents Weather Stations Pressure Air Temp Water Temp Dewpoint Dewpoint Depression Visibility Wind Speed Wind Dir Waves Ship Positions

Sumifukumaru No.5

Last reported at 2016-Aug-27 15:04 UTC. Time now 2016-Aug-30 20:49 UTC.
Position N 34°12' E 134°50'.

Length 75 m; draft 4.4 m.

Type: Cargo ship. MMSI: 431001371.

Date/timePositionNaut miles runAvg speedWind from/ knotsBaromVisibWave heightAir tempDewpointWater temp
2016-Aug-27 15:04N 34°12' E 134°50'711.7
2016-Aug-27 14:28N 34°14' E 134°58'6 6.0
2016-Aug-27 13:28N 34°15' E 135°05'0 0.0
2016-Aug-27 12:31N 34°15' E 135°05'0 0.0
2016-Aug-27 11:19N 34°15' E 135°05'0 0.0
2016-Aug-27 10:31N 34°15' E 135°05'0 0.0
2016-Aug-27 09:31N 34°15' E 135°05'0 0.0
2016-Aug-27 08:31N 34°15' E 135°05'0 0.0
2016-Aug-27 07:31N 34°15' E 135°05'1 1.5
2016-Aug-27 06:33N 34°15' E 135°07'0 0.0
2016-Aug-27 04:33N 34°15' E 135°07'0 0.0
2016-Aug-27 03:33N 34°15' E 135°07'0 0.0
2016-Aug-27 02:30N 34°15' E 135°07'0 0.0
2016-Aug-27 01:30N 34°15' E 135°07'0 0.0
2016-Aug-27 00:30N 34°15' E 135°07'0 0.0
2016-Aug-26 23:24N 34°15' E 135°07'0 0.0
2016-Aug-26 22:30N 34°15' E 135°07'0 0.0
2016-Aug-26 21:33N 34°15' E 135°07'0 0.0
2016-Aug-26 20:33N 34°15' E 135°07'0 0.0
2016-Aug-26 19:21N 34°15' E 135°07'0 0.0
2016-Aug-26 18:33N 34°15' E 135°07'0 0.0
2016-Aug-26 17:33N 34°15' E 135°07'0 0.0
2016-Aug-26 16:27N 34°15' E 135°07'0 0.0
2016-Aug-26 15:33N 34°15' E 135°07'0 0.0
2016-Aug-26 14:33N 34°15' E 135°07'0 0.0
2016-Aug-26 13:31N 34°15' E 135°07'0 0.0
2016-Aug-26 12:31N 34°15' E 135°07'234 9.4
2016-Aug-25 11:33N 35°10' E 139°44'1111.0
2016-Aug-25 10:33N 35°20' E 139°42'1211.5
2016-Aug-25 09:33N 35°30' E 139°51'1111.3
2016-Aug-25 08:33N 35°40' E 139°58'1 0.7
2016-Aug-25 07:30N 35°40' E 139°57'0 0.0
2016-Aug-25 06:30N 35°40' E 139°57'0 0.0
2016-Aug-25 04:30N 35°40' E 139°57'0 0.0
2016-Aug-25 03:18N 35°40' E 139°57'0 0.0
2016-Aug-25 02:30N 35°40' E 139°57'0 0.0
2016-Aug-25 01:27N 35°40' E 139°57'0 0.0
2016-Aug-25 00:30N 35°40' E 139°57'0 0.0
2016-Aug-24 23:18N 35°40' E 139°57'0 0.0
2016-Aug-24 22:34N 35°40' E 139°57'4 3.1
2016-Aug-24 21:26N 35°37' E 139°57'0 0.0
2016-Aug-24 20:26N 35°37' E 139°57'0 0.1
2016-Aug-24 19:32N 35°37' E 139°57'3 3.5
2016-Aug-24 18:33N 35°34' E 139°55'1111.5
2016-Aug-24 17:34N 35°25' E 139°47'1010.1
2016-Aug-24 16:32N 35°14' E 139°47'241 6.0
2016-Aug-23 00:33N 34°08' E 135°05'4 4.1
2016-Aug-22 23:32N 34°10' E 135°09'0 0.0
2016-Aug-22 22:20N 34°10' E 135°09'0 0.0
2016-Aug-22 21:32N 34°10' E 135°09'0 0.0
2016-Aug-22 20:26N 34°10' E 135°09'0 0.0
2016-Aug-22 19:32N 34°10' E 135°09'0 0.0
2016-Aug-22 18:20N 34°10' E 135°09'0 0.0
2016-Aug-22 17:32N 34°10' E 135°09'0 0.0
2016-Aug-22 16:32N 34°10' E 135°09'0 0.0
2016-Aug-22 15:32N 34°10' E 135°09'0 0.0
2016-Aug-22 14:32N 34°10' E 135°09'0 0.0
2016-Aug-22 13:32N 34°10' E 135°09'0 0.0
2016-Aug-22 12:32N 34°10' E 135°09'0 0.0
2016-Aug-22 11:32N 34°10' E 135°09'0 0.0
2016-Aug-22 10:32N 34°10' E 135°09'0 0.0
2016-Aug-22 09:32N 34°10' E 135°09'0 0.0
2016-Aug-22 08:32N 34°10' E 135°09'0 0.0
2016-Aug-22 07:32N 34°10' E 135°09'0 0.1
2016-Aug-22 06:32N 34°10' E 135°09'0 0.0
2016-Aug-22 05:32N 34°10' E 135°09'0 0.0
2016-Aug-22 04:32N 34°10' E 135°09'0 0.0
2016-Aug-22 03:32N 34°10' E 135°09'0 0.0
2016-Aug-22 02:32N 34°10' E 135°09'0 0.0
2016-Aug-22 01:29N 34°10' E 135°09'0 0.0
2016-Aug-22 00:32N 34°10' E 135°09'0 0.0
2016-Aug-21 23:32N 34°10' E 135°09'0 0.0
2016-Aug-21 22:32N 34°10' E 135°09'0 0.0
2016-Aug-21 21:32N 34°10' E 135°09'0 0.0
2016-Aug-21 20:29N 34°10' E 135°09'0 0.0
2016-Aug-21 19:32N 34°10' E 135°09'0 0.0
2016-Aug-21 18:32N 34°10' E 135°09'0 0.0
2016-Aug-21 17:32N 34°10' E 135°09'0 0.0
2016-Aug-21 16:32N 34°10' E 135°09'0 0.0
2016-Aug-21 15:32N 34°10' E 135°09'0 0.0
2016-Aug-21 14:32N 34°10' E 135°09'0 0.0
2016-Aug-21 13:32N 34°10' E 135°09'0 0.0
2016-Aug-21 12:32N 34°10' E 135°09'0 0.0
2016-Aug-21 11:32N 34°10' E 135°09'0 0.0
2016-Aug-21 10:32N 34°10' E 135°09'0 0.0
2016-Aug-21 09:32N 34°10' E 135°09'0 0.0
2016-Aug-21 08:29N 34°10' E 135°09'0 0.0
2016-Aug-21 07:29N 34°10' E 135°09'0 0.0
2016-Aug-21 06:29N 34°10' E 135°09'0 0.0
2016-Aug-21 04:23N 34°10' E 135°09'0 0.0
2016-Aug-21 03:29N 34°10' E 135°09'0 0.0
2016-Aug-21 02:20N 34°10' E 135°09'0 0.1
2016-Aug-21 01:32N 34°10' E 135°09'0 0.1
2016-Aug-21 00:32N 34°10' E 135°09'0 0.1
2016-Aug-20 23:32N 34°10' E 135°09'0 0.0
2016-Aug-20 22:32N 34°10' E 135°09'0 0.0
2016-Aug-20 21:29N 34°10' E 135°09'0 0.0
2016-Aug-20 20:32N 34°10' E 135°09'3 3.2
2016-Aug-20 19:33N 34°12' E 135°06'1410.4
2016-Aug-20 18:15N 34°25' E 135°09'812.2
2016-Aug-20 17:33N 34°31' E 135°16'10 9.6
2016-Aug-20 16:33N 34°35' E 135°27'1 0.1
2016-Aug-20 00:03N 34°34' E 135°27'0 0.0
2016-Aug-19 22:33N 34°34' E 135°27'0 0.2
2016-Aug-19 20:28N 34°34' E 135°27'0 0.0
2016-Aug-19 18:28N 34°34' E 135°27'0 0.0
2016-Aug-19 16:04N 34°35' E 135°27'5 9.6
2016-Aug-19 15:33N 34°36' E 135°21'1313.1
2016-Aug-19 14:33N 34°35' E 135°05'8 0.4
2016-Aug-18 16:33N 34°37' E 134°57'8 7.6
2016-Aug-18 15:28N 34°33' E 135°05'  
Track history (hours):
 
Tides and Currents Weather Stations Pressure Air Temp Water Temp Dewpoint Dewpoint Depression Visibility Wind Speed Wind Dir Waves Ship Positions

Sumifukumaru No.5

Last reported at 2016-Aug-27 15:04 UTC. Time now 2016-Aug-30 20:49 UTC.
Position N 34°12' E 134°50'.

Length 75 m; draft 4.4 m.

Type: Cargo ship. MMSI: 431001371.

Date/timePositionNaut miles runAvg speedWind from/ knotsBaromVisibWave heightAir tempDewpointWater temp
2016-Aug-27 15:04N 34°12' E 134°50'711.7
2016-Aug-27 14:28N 34°14' E 134°58'6 6.0
2016-Aug-27 13:28N 34°15' E 135°05'0 0.0
2016-Aug-27 12:31N 34°15' E 135°05'0 0.0
2016-Aug-27 11:19N 34°15' E 135°05'0 0.0
2016-Aug-27 10:31N 34°15' E 135°05'0 0.0
2016-Aug-27 09:31N 34°15' E 135°05'0 0.0
2016-Aug-27 08:31N 34°15' E 135°05'0 0.0
2016-Aug-27 07:31N 34°15' E 135°05'1 1.5
2016-Aug-27 06:33N 34°15' E 135°07'0 0.0
2016-Aug-27 04:33N 34°15' E 135°07'0 0.0
2016-Aug-27 03:33N 34°15' E 135°07'0 0.0
2016-Aug-27 02:30N 34°15' E 135°07'0 0.0
2016-Aug-27 01:30N 34°15' E 135°07'0 0.0
2016-Aug-27 00:30N 34°15' E 135°07'0 0.0
2016-Aug-26 23:24N 34°15' E 135°07'0 0.0
2016-Aug-26 22:30N 34°15' E 135°07'0 0.0
2016-Aug-26 21:33N 34°15' E 135°07'0 0.0
2016-Aug-26 20:33N 34°15' E 135°07'0 0.0
2016-Aug-26 19:21N 34°15' E 135°07'0 0.0
2016-Aug-26 18:33N 34°15' E 135°07'0 0.0
2016-Aug-26 17:33N 34°15' E 135°07'0 0.0
2016-Aug-26 16:27N 34°15' E 135°07'0 0.0
2016-Aug-26 15:33N 34°15' E 135°07'0 0.0
2016-Aug-26 14:33N 34°15' E 135°07'0 0.0
2016-Aug-26 13:31N 34°15' E 135°07'0 0.0
2016-Aug-26 12:31N 34°15' E 135°07'234 9.4
2016-Aug-25 11:33N 35°10' E 139°44'1111.0
2016-Aug-25 10:33N 35°20' E 139°42'1211.5
2016-Aug-25 09:33N 35°30' E 139°51'1111.3
2016-Aug-25 08:33N 35°40' E 139°58'1 0.7
2016-Aug-25 07:30N 35°40' E 139°57'0 0.0
2016-Aug-25 06:30N 35°40' E 139°57'0 0.0
2016-Aug-25 04:30N 35°40' E 139°57'0 0.0
2016-Aug-25 03:18N 35°40' E 139°57'0 0.0
2016-Aug-25 02:30N 35°40' E 139°57'0 0.0
2016-Aug-25 01:27N 35°40' E 139°57'0 0.0
2016-Aug-25 00:30N 35°40' E 139°57'0 0.0
2016-Aug-24 23:18N 35°40' E 139°57'0 0.0
2016-Aug-24 22:34N 35°40' E 139°57'4 3.1
2016-Aug-24 21:26N 35°37' E 139°57'0 0.0
2016-Aug-24 20:26N 35°37' E 139°57'0 0.1
2016-Aug-24 19:32N 35°37' E 139°57'3 3.5
2016-Aug-24 18:33N 35°34' E 139°55'1111.5
2016-Aug-24 17:34N 35°25' E 139°47'1010.1
2016-Aug-24 16:32N 35°14' E 139°47'241 6.0
2016-Aug-23 00:33N 34°08' E 135°05'4 4.1
2016-Aug-22 23:32N 34°10' E 135°09'0 0.0
2016-Aug-22 22:20N 34°10' E 135°09'0 0.0
2016-Aug-22 21:32N 34°10' E 135°09'0 0.0
2016-Aug-22 20:26N 34°10' E 135°09'0 0.0
2016-Aug-22 19:32N 34°10' E 135°09'0 0.0
2016-Aug-22 18:20N 34°10' E 135°09'0 0.0
2016-Aug-22 17:32N 34°10' E 135°09'0 0.0
2016-Aug-22 16:32N 34°10' E 135°09'0 0.0
2016-Aug-22 15:32N 34°10' E 135°09'0 0.0
2016-Aug-22 14:32N 34°10' E 135°09'0 0.0
2016-Aug-22 13:32N 34°10' E 135°09'0 0.0
2016-Aug-22 12:32N 34°10' E 135°09'0 0.0
2016-Aug-22 11:32N 34°10' E 135°09'0 0.0
2016-Aug-22 10:32N 34°10' E 135°09'0 0.0
2016-Aug-22 09:32N 34°10' E 135°09'0 0.0
2016-Aug-22 08:32N 34°10' E 135°09'0 0.0
2016-Aug-22 07:32N 34°10' E 135°09'0 0.1
2016-Aug-22 06:32N 34°10' E 135°09'0 0.0
2016-Aug-22 05:32N 34°10' E 135°09'0 0.0
2016-Aug-22 04:32N 34°10' E 135°09'0 0.0
2016-Aug-22 03:32N 34°10' E 135°09'0 0.0
2016-Aug-22 02:32N 34°10' E 135°09'0 0.0
2016-Aug-22 01:29N 34°10' E 135°09'0 0.0
2016-Aug-22 00:32N 34°10' E 135°09'0 0.0
2016-Aug-21 23:32N 34°10' E 135°09'0 0.0
2016-Aug-21 22:32N 34°10' E 135°09'0 0.0
2016-Aug-21 21:32N 34°10' E 135°09'0 0.0
2016-Aug-21 20:29N 34°10' E 135°09'0 0.0
2016-Aug-21 19:32N 34°10' E 135°09'0 0.0
2016-Aug-21 18:32N 34°10' E 135°09'0 0.0
2016-Aug-21 17:32N 34°10' E 135°09'0 0.0
2016-Aug-21 16:32N 34°10' E 135°09'0 0.0
2016-Aug-21 15:32N 34°10' E 135°09'0 0.0
2016-Aug-21 14:32N 34°10' E 135°09'0 0.0
2016-Aug-21 13:32N 34°10' E 135°09'0 0.0
2016-Aug-21 12:32N 34°10' E 135°09'0 0.0
2016-Aug-21 11:32N 34°10' E 135°09'0 0.0
2016-Aug-21 10:32N 34°10' E 135°09'0 0.0
2016-Aug-21 09:32N 34°10' E 135°09'0 0.0
2016-Aug-21 08:29N 34°10' E 135°09'0 0.0
2016-Aug-21 07:29N 34°10' E 135°09'0 0.0
2016-Aug-21 06:29N 34°10' E 135°09'0 0.0
2016-Aug-21 04:23N 34°10' E 135°09'0 0.0
2016-Aug-21 03:29N 34°10' E 135°09'0 0.0
2016-Aug-21 02:20N 34°10' E 135°09'0 0.1
2016-Aug-21 01:32N 34°10' E 135°09'0 0.1
2016-Aug-21 00:32N 34°10' E 135°09'0 0.1
2016-Aug-20 23:32N 34°10' E 135°09'0 0.0
2016-Aug-20 22:32N 34°10' E 135°09'0 0.0
2016-Aug-20 21:29N 34°10' E 135°09'0 0.0
2016-Aug-20 20:32N 34°10' E 135°09'3 3.2
2016-Aug-20 19:33N 34°12' E 135°06'1410.4
2016-Aug-20 18:15N 34°25' E 135°09'812.2
2016-Aug-20 17:33N 34°31' E 135°16'10 9.6
2016-Aug-20 16:33N 34°35' E 135°27'1 0.1
2016-Aug-20 00:03N 34°34' E 135°27'0 0.0
2016-Aug-19 22:33N 34°34' E 135°27'0 0.2
2016-Aug-19 20:28N 34°34' E 135°27'0 0.0
2016-Aug-19 18:28N 34°34' E 135°27'0 0.0
2016-Aug-19 16:04N 34°35' E 135°27'5 9.6
2016-Aug-19 15:33N 34°36' E 135°21'1313.1
2016-Aug-19 14:33N 34°35' E 135°05'8 0.4
2016-Aug-18 16:33N 34°37' E 134°57'8 7.6
2016-Aug-18 15:28N 34°33' E 135°05'  

Dump ship's entire track history